Cooper, Iowa
Current Conditions -  °F | °C
As of 9:15 PM on Monday 26 Jan 2015 (Local Time) from KCIN Reporting Station
Clear Clear  
Wind Chill: 27°   Ceiling: Unl
Heat Index: 36°   Visibility: 10mi
Dew Point: 34°   Wind: 13mph
Humidity: 93%   Direction: 320°NW
Pressure: 29.99"   Gusts: NA
Location:  41.92°N, 94.35°W
Report Text: KCIN 270315Z AUTO 32011KT 10SM CLR 02/01 A2999 RMK AO2
Loading
Personal Weather Stations






























Interactive Weather Map New forecast layout! Learn more

10-Day Weather Forecast

Advertisements
Track Severe Weather on mobile